sensor_id;sensor_type;location;lat;lon;timestamp;temperature;humidity
13794;DHT22;31160;49.500;7.772;2022-07-29T00:00:00;17.80;99.90
13794;DHT22;31160;49.500;7.772;2022-07-29T00:02:30;17.80;99.90
13794;DHT22;31160;49.500;7.772;2022-07-29T00:04:58;17.80;99.90
13794;DHT22;31160;49.500;7.772;2022-07-29T00:07:25;17.90;99.90
13794;DHT22;31160;49.500;7.772;2022-07-29T00:09:52;17.90;99.90
13794;DHT22;31160;49.500;7.772;2022-07-29T00:12:21;17.80;99.90
13794;DHT22;31160;49.500;7.772;2022-07-29T00:14:56;17.80;99.90
13794;DHT22;31160;49.500;7.772;2022-07-29T00:17:23;17.80;99.90
13794;DHT22;31160;49.500;7.772;2022-07-29T00:19:51;17.70;99.90
13794;DHT22;31160;49.500;7.772;2022-07-29T00:22:19;17.70;99.90
13794;DHT22;31160;49.500;7.772;2022-07-29T00:24:49;17.50;99.90
13794;DHT22;31160;49.500;7.772;2022-07-29T00:27:17;17.50;99.90
13794;DHT22;31160;49.500;7.772;2022-07-29T00:29:45;17.40;99.90
13794;DHT22;31160;49.500;7.772;2022-07-29T00:32:12;17.40;99.90
13794;DHT22;31160;49.500;7.772;2022-07-29T00:34:39;17.30;99.90
13794;DHT22;31160;49.500;7.772;2022-07-29T00:37:24;17.20;99.90
13794;DHT22;31160;49.500;7.772;2022-07-29T00:39:51;17.10;99.90
13794;DHT22;31160;49.500;7.772;2022-07-29T00:42:18;17.10;99.90
13794;DHT22;31160;49.500;7.772;2022-07-29T00:44:45;17.00;99.90
13794;DHT22;31160;49.500;7.772;2022-07-29T00:47:12;16.90;99.90
13794;DHT22;31160;49.500;7.772;2022-07-29T00:49:40;16.80;99.90
13794;DHT22;31160;49.500;7.772;2022-07-29T00:52:09;16.80;99.90
13794;DHT22;31160;49.500;7.772;2022-07-29T00:54:38;16.70;99.90
13794;DHT22;31160;49.500;7.772;2022-07-29T00:57:11;16.70;99.90
13794;DHT22;31160;49.500;7.772;2022-07-29T00:59:38;16.60;99.90
13794;DHT22;31160;49.500;7.772;2022-07-29T01:02:05;16.60;99.90
13794;DHT22;31160;49.500;7.772;2022-07-29T01:04:32;16.50;99.90
13794;DHT22;31160;49.500;7.772;2022-07-29T01:07:01;16.50;99.90
13794;DHT22;31160;49.500;7.772;2022-07-29T01:09:31;16.40;99.90
13794;DHT22;31160;49.500;7.772;2022-07-29T01:12:12;16.30;99.90
13794;DHT22;31160;49.500;7.772;2022-07-29T01:14:40;16.30;99.90
13794;DHT22;31160;49.500;7.772;2022-07-29T01:17:20;16.20;99.90
13794;DHT22;31160;49.500;7.772;2022-07-29T01:22:36;16.20;99.90
13794;DHT22;31160;49.500;7.772;2022-07-29T01:25:11;16.20;99.90
13794;DHT22;31160;49.500;7.772;2022-07-29T01:28:17;16.10;99.90
13794;DHT22;31160;49.500;7.772;2022-07-29T01:30:51;16.10;99.90
13794;DHT22;31160;49.500;7.772;2022-07-29T01:33:21;16.00;99.90
13794;DHT22;31160;49.500;7.772;2022-07-29T01:36:16;16.00;99.90
13794;DHT22;31160;49.500;7.772;2022-07-29T01:38:46;16.00;99.90
13794;DHT22;31160;49.500;7.772;2022-07-29T01:41:17;15.80;99.90
13794;DHT22;31160;49.500;7.772;2022-07-29T01:43:58;15.80;99.90
13794;DHT22;31160;49.500;7.772;2022-07-29T01:46:35;15.80;99.90
13794;DHT22;31160;49.500;7.772;2022-07-29T01:49:11;15.80;99.90
13794;DHT22;31160;49.500;7.772;2022-07-29T01:51:52;15.70;99.90
13794;DHT22;31160;49.500;7.772;2022-07-29T01:54:26;15.70;99.90
13794;DHT22;31160;49.500;7.772;2022-07-29T01:56:56;15.60;99.90
13794;DHT22;31160;49.500;7.772;2022-07-29T01:59:24;15.60;99.90
13794;DHT22;31160;49.500;7.772;2022-07-29T02:01:54;15.60;99.90
13794;DHT22;31160;49.500;7.772;2022-07-29T02:04:24;15.60;99.90
13794;DHT22;31160;49.500;7.772;2022-07-29T02:07:00;15.60;99.90
13794;DHT22;31160;49.500;7.772;2022-07-29T02:09:28;15.60;99.90
13794;DHT22;31160;49.500;7.772;2022-07-29T02:11:57;15.50;99.90
13794;DHT22;31160;49.500;7.772;2022-07-29T02:14:26;15.50;99.90
13794;DHT22;31160;49.500;7.772;2022-07-29T02:16:56;15.50;99.90
13794;DHT22;31160;49.500;7.772;2022-07-29T02:19:25;15.50;99.90
13794;DHT22;31160;49.500;7.772;2022-07-29T02:21:54;15.50;99.90
13794;DHT22;31160;49.500;7.772;2022-07-29T02:24:23;15.50;99.90
13794;DHT22;31160;49.500;7.772;2022-07-29T02:26:53;15.50;99.90
13794;DHT22;31160;49.500;7.772;2022-07-29T02:29:23;15.50;99.90
13794;DHT22;31160;49.500;7.772;2022-07-29T02:31:51;15.40;99.90
13794;DHT22;31160;49.500;7.772;2022-07-29T02:34:20;15.30;99.90
13794;DHT22;31160;49.500;7.772;2022-07-29T02:36:48;15.40;99.90
13794;DHT22;31160;49.500;7.772;2022-07-29T02:39:17;15.40;99.90
13794;DHT22;31160;49.500;7.772;2022-07-29T02:41:48;15.40;99.90
13794;DHT22;31160;49.500;7.772;2022-07-29T02:44:17;15.40;99.90
13794;DHT22;31160;49.500;7.772;2022-07-29T02:52:01;15.20;99.90
13794;DHT22;31160;49.500;7.772;2022-07-29T02:54:42;15.20;99.90
13794;DHT22;31160;49.500;7.772;2022-07-29T02:57:31;15.20;99.90
13794;DHT22;31160;49.500;7.772;2022-07-29T03:00:04;15.20;99.90
13794;DHT22;31160;49.500;7.772;2022-07-29T03:02:37;15.20;99.90
13794;DHT22;31160;49.500;7.772;2022-07-29T03:05:06;15.20;99.90
13794;DHT22;31160;49.500;7.772;2022-07-29T03:07:36;15.20;99.90
13794;DHT22;31160;49.500;7.772;2022-07-29T03:10:04;15.10;99.90
13794;DHT22;31160;49.500;7.772;2022-07-29T03:12:40;15.10;99.90
13794;DHT22;31160;49.500;7.772;2022-07-29T03:15:08;15.10;99.90
13794;DHT22;31160;49.500;7.772;2022-07-29T03:17:36;15.10;99.90
13794;DHT22;31160;49.500;7.772;2022-07-29T03:20:07;15.10;99.90
13794;DHT22;31160;49.500;7.772;2022-07-29T03:22:41;15.10;99.90
13794;DHT22;31160;49.500;7.772;2022-07-29T03:25:17;15.10;99.90
13794;DHT22;31160;49.500;7.772;2022-07-29T03:27:45;15.10;99.90
13794;DHT22;31160;49.500;7.772;2022-07-29T03:30:13;15.10;99.90
13794;DHT22;31160;49.500;7.772;2022-07-29T03:32:48;15.10;99.90
13794;DHT22;31160;49.500;7.772;2022-07-29T03:35:18;15.10;99.90
13794;DHT22;31160;49.500;7.772;2022-07-29T03:37:49;15.10;99.90
13794;DHT22;31160;49.500;7.772;2022-07-29T03:40:27;15.10;99.90
13794;DHT22;31160;49.500;7.772;2022-07-29T03:42:56;15.10;99.90
13794;DHT22;31160;49.500;7.772;2022-07-29T03:45:25;15.00;99.90
13794;DHT22;31160;49.500;7.772;2022-07-29T03:47:57;15.00;99.90
13794;DHT22;31160;49.500;7.772;2022-07-29T03:50:28;15.00;99.90
13794;DHT22;31160;49.500;7.772;2022-07-29T03:52:57;15.00;99.90
13794;DHT22;31160;49.500;7.772;2022-07-29T03:55:25;15.00;99.90
13794;DHT22;31160;49.500;7.772;2022-07-29T03:57:53;15.10;99.90
13794;DHT22;31160;49.500;7.772;2022-07-29T04:00:23;15.10;99.90
13794;DHT22;31160;49.500;7.772;2022-07-29T04:02:50;15.00;99.90
13794;DHT22;31160;49.500;7.772;2022-07-29T04:05:18;15.00;99.90
13794;DHT22;31160;49.500;7.772;2022-07-29T04:07:48;15.00;99.90
13794;DHT22;31160;49.500;7.772;2022-07-29T04:10:17;14.90;99.90
13794;DHT22;31160;49.500;7.772;2022-07-29T04:12:56;14.90;99.90
13794;DHT22;31160;49.500;7.772;2022-07-29T04:15:23;14.90;99.90
13794;DHT22;31160;49.500;7.772;2022-07-29T04:17:50;14.90;99.90
13794;DHT22;31160;49.500;7.772;2022-07-29T04:20:16;14.90;99.90
13794;DHT22;31160;49.500;7.772;2022-07-29T04:22:43;15.00;99.90
13794;DHT22;31160;49.500;7.772;2022-07-29T04:25:10;15.20;99.90
13794;DHT22;31160;49.500;7.772;2022-07-29T04:27:37;15.30;99.90
13794;DHT22;31160;49.500;7.772;2022-07-29T04:30:24;15.40;99.90
13794;DHT22;31160;49.500;7.772;2022-07-29T04:32:50;15.60;99.90
13794;DHT22;31160;49.500;7.772;2022-07-29T04:35:18;15.80;99.90
13794;DHT22;31160;49.500;7.772;2022-07-29T04:37:45;15.90;99.90
13794;DHT22;31160;49.500;7.772;2022-07-29T04:40:12;15.90;99.90
13794;DHT22;31160;49.500;7.772;2022-07-29T04:42:39;16.00;99.90
13794;DHT22;31160;49.500;7.772;2022-07-29T04:45:12;16.10;99.90
13794;DHT22;31160;49.500;7.772;2022-07-29T04:47:39;16.20;99.90
13794;DHT22;31160;49.500;7.772;2022-07-29T04:50:07;16.20;99.90
13794;DHT22;31160;49.500;7.772;2022-07-29T04:52:34;16.30;99.90
13794;DHT22;31160;49.500;7.772;2022-07-29T04:55:02;16.40;99.90
13794;DHT22;31160;49.500;7.772;2022-07-29T04:57:29;16.40;99.90
13794;DHT22;31160;49.500;7.772;2022-07-29T04:59:56;16.40;99.90
13794;DHT22;31160;49.500;7.772;2022-07-29T05:02:23;16.40;99.90
13794;DHT22;31160;49.500;7.772;2022-07-29T05:04:50;16.40;99.90
13794;DHT22;31160;49.500;7.772;2022-07-29T05:07:17;16.40;99.90
13794;DHT22;31160;49.500;7.772;2022-07-29T05:09:44;16.50;99.90
13794;DHT22;31160;49.500;7.772;2022-07-29T05:12:11;16.50;99.90
13794;DHT22;31160;49.500;7.772;2022-07-29T05:14:39;16.50;99.90
13794;DHT22;31160;49.500;7.772;2022-07-29T05:17:06;16.20;99.90
13794;DHT22;31160;49.500;7.772;2022-07-29T05:19:33;16.40;99.90
13794;DHT22;31160;49.500;7.772;2022-07-29T05:22:05;16.10;99.90
13794;DHT22;31160;49.500;7.772;2022-07-29T05:24:32;16.20;99.90
13794;DHT22;31160;49.500;7.772;2022-07-29T05:26:58;16.30;99.90
13794;DHT22;31160;49.500;7.772;2022-07-29T05:29:25;16.50;99.90
13794;DHT22;31160;49.500;7.772;2022-07-29T05:32:14;16.60;99.90
13794;DHT22;31160;49.500;7.772;2022-07-29T05:34:43;16.80;99.90
13794;DHT22;31160;49.500;7.772;2022-07-29T05:37:20;17.60;99.90
13794;DHT22;31160;49.500;7.772;2022-07-29T05:39:47;20.80;99.90
13794;DHT22;31160;49.500;7.772;2022-07-29T05:42:14;22.60;99.90
13794;DHT22;31160;49.500;7.772;2022-07-29T05:44:42;24.00;98.30
13794;DHT22;31160;49.500;7.772;2022-07-29T05:47:09;26.20;93.70
13794;DHT22;31160;49.500;7.772;2022-07-29T05:49:36;28.40;86.20
13794;DHT22;31160;49.500;7.772;2022-07-29T05:52:03;29.40;80.60
13794;DHT22;31160;49.500;7.772;2022-07-29T05:54:30;29.30;77.00
13794;DHT22;31160;49.500;7.772;2022-07-29T05:56:57;27.80;79.60
13794;DHT22;31160;49.500;7.772;2022-07-29T05:59:23;27.50;80.90
13794;DHT22;31160;49.500;7.772;2022-07-29T06:01:56;28.50;79.00
13794;DHT22;31160;49.500;7.772;2022-07-29T06:04:24;29.00;76.10
13794;DHT22;31160;49.500;7.772;2022-07-29T06:06:51;27.50;78.40
13794;DHT22;31160;49.500;7.772;2022-07-29T06:09:18;25.80;83.80
13794;DHT22;31160;49.500;7.772;2022-07-29T06:11:45;24.20;89.10
13794;DHT22;31160;49.500;7.772;2022-07-29T06:14:12;22.70;93.10
13794;DHT22;31160;49.500;7.772;2022-07-29T06:16:39;21.80;96.20
13794;DHT22;31160;49.500;7.772;2022-07-29T06:19:06;21.00;98.20
13794;DHT22;31160;49.500;7.772;2022-07-29T06:21:35;20.40;99.90
13794;DHT22;31160;49.500;7.772;2022-07-29T06:24:07;20.40;99.90
13794;DHT22;31160;49.500;7.772;2022-07-29T06:26:34;20.50;99.90
13794;DHT22;31160;49.500;7.772;2022-07-29T06:29:06;20.50;99.90
13794;DHT22;31160;49.500;7.772;2022-07-29T06:31:34;20.60;99.90
13794;DHT22;31160;49.500;7.772;2022-07-29T06:34:01;20.60;99.90
13794;DHT22;31160;49.500;7.772;2022-07-29T06:36:29;20.80;99.90
13794;DHT22;31160;49.500;7.772;2022-07-29T06:38:57;20.80;99.90
13794;DHT22;31160;49.500;7.772;2022-07-29T06:41:24;20.80;99.90
13794;DHT22;31160;49.500;7.772;2022-07-29T06:43:52;20.80;99.90
13794;DHT22;31160;49.500;7.772;2022-07-29T06:46:21;20.90;99.90
13794;DHT22;31160;49.500;7.772;2022-07-29T06:48:49;21.20;99.90
13794;DHT22;31160;49.500;7.772;2022-07-29T06:51:19;21.30;99.90
13794;DHT22;31160;49.500;7.772;2022-07-29T06:53:50;21.40;99.90
13794;DHT22;31160;49.500;7.772;2022-07-29T06:56:29;21.30;99.90
13794;DHT22;31160;49.500;7.772;2022-07-29T06:58:55;21.60;99.90
13794;DHT22;31160;49.500;7.772;2022-07-29T07:01:22;21.90;99.90
13794;DHT22;31160;49.500;7.772;2022-07-29T07:03:49;22.40;99.80
13794;DHT22;31160;49.500;7.772;2022-07-29T07:06:16;23.00;98.30
13794;DHT22;31160;49.500;7.772;2022-07-29T07:08:43;23.20;97.30
13794;DHT22;31160;49.500;7.772;2022-07-29T07:11:10;23.10;96.60
13794;DHT22;31160;49.500;7.772;2022-07-29T07:13:37;22.90;96.80
13794;DHT22;31160;49.500;7.772;2022-07-29T07:16:04;22.90;95.70
13794;DHT22;31160;49.500;7.772;2022-07-29T07:18:31;22.90;95.00
13794;DHT22;31160;49.500;7.772;2022-07-29T07:20:58;23.00;94.80
13794;DHT22;31160;49.500;7.772;2022-07-29T07:23:25;23.10;92.90
13794;DHT22;31160;49.500;7.772;2022-07-29T07:25:52;23.00;93.30
13794;DHT22;31160;49.500;7.772;2022-07-29T07:28:19;23.10;92.40
13794;DHT22;31160;49.500;7.772;2022-07-29T07:30:50;23.40;92.40
13794;DHT22;31160;49.500;7.772;2022-07-29T07:33:17;23.90;92.00
13794;DHT22;31160;49.500;7.772;2022-07-29T07:35:44;24.10;92.50
13794;DHT22;31160;49.500;7.772;2022-07-29T07:38:11;24.50;91.30
13794;DHT22;31160;49.500;7.772;2022-07-29T07:40:38;24.60;89.70
13794;DHT22;31160;49.500;7.772;2022-07-29T07:43:05;24.60;89.30
13794;DHT22;31160;49.500;7.772;2022-07-29T07:45:32;24.10;90.10
13794;DHT22;31160;49.500;7.772;2022-07-29T07:47:59;23.90;90.60
13794;DHT22;31160;49.500;7.772;2022-07-29T07:50:26;24.00;91.60
13794;DHT22;31160;49.500;7.772;2022-07-29T07:52:55;24.10;90.80
13794;DHT22;31160;49.500;7.772;2022-07-29T07:55:25;24.10;90.40
13794;DHT22;31160;49.500;7.772;2022-07-29T07:57:53;24.30;88.60
13794;DHT22;31160;49.500;7.772;2022-07-29T08:00:21;24.30;90.30
13794;DHT22;31160;49.500;7.772;2022-07-29T08:02:48;24.20;89.10
13794;DHT22;31160;49.500;7.772;2022-07-29T08:05:17;23.80;90.00
13794;DHT22;31160;49.500;7.772;2022-07-29T08:07:45;23.60;90.80
13794;DHT22;31160;49.500;7.772;2022-07-29T08:10:14;23.40;91.40
13794;DHT22;31160;49.500;7.772;2022-07-29T08:12:41;23.30;91.80
13794;DHT22;31160;49.500;7.772;2022-07-29T08:15:08;23.30;92.10
13794;DHT22;31160;49.500;7.772;2022-07-29T08:17:35;23.30;91.40
13794;DHT22;31160;49.500;7.772;2022-07-29T08:20:03;23.40;91.90
13794;DHT22;31160;49.500;7.772;2022-07-29T08:22:30;23.30;91.20
13794;DHT22;31160;49.500;7.772;2022-07-29T08:24:56;23.30;92.30
13794;DHT22;31160;49.500;7.772;2022-07-29T08:27:23;23.30;92.10
13794;DHT22;31160;49.500;7.772;2022-07-29T08:30:10;23.60;91.30
13794;DHT22;31160;49.500;7.772;2022-07-29T08:32:37;23.60;90.80
13794;DHT22;31160;49.500;7.772;2022-07-29T08:35:22;23.60;91.50
13794;DHT22;31160;49.500;7.772;2022-07-29T08:37:49;23.90;90.60
13794;DHT22;31160;49.500;7.772;2022-07-29T08:40:17;23.90;90.70
13794;DHT22;31160;49.500;7.772;2022-07-29T08:42:45;24.10;90.90
13794;DHT22;31160;49.500;7.772;2022-07-29T08:45:12;24.30;90.70
13794;DHT22;31160;49.500;7.772;2022-07-29T08:47:39;24.50;90.50
13794;DHT22;31160;49.500;7.772;2022-07-29T08:50:10;24.60;90.30
13794;DHT22;31160;49.500;7.772;2022-07-29T08:52:40;24.40;90.20
13794;DHT22;31160;49.500;7.772;2022-07-29T08:55:08;24.40;90.30
13794;DHT22;31160;49.500;7.772;2022-07-29T08:57:38;24.40;90.50
13794;DHT22;31160;49.500;7.772;2022-07-29T09:00:17;24.60;90.70
13794;DHT22;31160;49.500;7.772;2022-07-29T09:02:47;24.80;90.70
13794;DHT22;31160;49.500;7.772;2022-07-29T09:05:14;25.00;90.60
13794;DHT22;31160;49.500;7.772;2022-07-29T09:07:43;25.10;90.20
13794;DHT22;31160;49.500;7.772;2022-07-29T09:10:11;25.10;89.20
13794;DHT22;31160;49.500;7.772;2022-07-29T09:12:38;25.00;88.50
13794;DHT22;31160;49.500;7.772;2022-07-29T09:15:05;25.20;88.80
13794;DHT22;31160;49.500;7.772;2022-07-29T09:17:46;25.30;86.30
13794;DHT22;31160;49.500;7.772;2022-07-29T09:20:16;25.50;86.80
13794;DHT22;31160;49.500;7.772;2022-07-29T09:22:44;25.90;86.00
13794;DHT22;31160;49.500;7.772;2022-07-29T09:25:32;26.20;84.50
13794;DHT22;31160;49.500;7.772;2022-07-29T09:28:12;26.40;83.60
13794;DHT22;31160;49.500;7.772;2022-07-29T09:30:54;26.60;81.50
13794;DHT22;31160;49.500;7.772;2022-07-29T09:33:22;26.80;79.80
13794;DHT22;31160;49.500;7.772;2022-07-29T09:36:04;26.90;79.80
13794;DHT22;31160;49.500;7.772;2022-07-29T09:38:34;26.90;77.90
13794;DHT22;31160;49.500;7.772;2022-07-29T09:41:03;27.00;78.60
13794;DHT22;31160;49.500;7.772;2022-07-29T09:43:32;27.00;78.70
13794;DHT22;31160;49.500;7.772;2022-07-29T09:46:13;27.30;77.90
13794;DHT22;31160;49.500;7.772;2022-07-29T09:48:40;27.30;76.60
13794;DHT22;31160;49.500;7.772;2022-07-29T09:51:20;27.40;77.10
13794;DHT22;31160;49.500;7.772;2022-07-29T09:54:24;28.00;77.00
13794;DHT22;31160;49.500;7.772;2022-07-29T09:56:53;28.50;75.40
13794;DHT22;31160;49.500;7.772;2022-07-29T09:59:21;28.70;73.70
13794;DHT22;31160;49.500;7.772;2022-07-29T10:01:50;28.60;74.30
13794;DHT22;31160;49.500;7.772;2022-07-29T10:04:18;28.90;73.00
13794;DHT22;31160;49.500;7.772;2022-07-29T10:07:02;28.90;72.40
13794;DHT22;31160;49.500;7.772;2022-07-29T10:09:31;28.80;72.40
13794;DHT22;31160;49.500;7.772;2022-07-29T10:12:09;28.90;73.10
13794;DHT22;31160;49.500;7.772;2022-07-29T10:14:37;28.60;72.20
13794;DHT22;31160;49.500;7.772;2022-07-29T10:17:06;28.40;73.20
13794;DHT22;31160;49.500;7.772;2022-07-29T10:19:34;28.50;72.70
13794;DHT22;31160;49.500;7.772;2022-07-29T10:22:04;28.50;73.70
13794;DHT22;31160;49.500;7.772;2022-07-29T10:24:32;28.80;71.70
13794;DHT22;31160;49.500;7.772;2022-07-29T10:27:01;29.10;70.60
13794;DHT22;31160;49.500;7.772;2022-07-29T10:29:28;29.20;71.00
13794;DHT22;31160;49.500;7.772;2022-07-29T10:35:14;29.30;70.20
13794;DHT22;31160;49.500;7.772;2022-07-29T10:44:12;28.80;71.20
13794;DHT22;31160;49.500;7.772;2022-07-29T10:46:45;29.00;70.40
13794;DHT22;31160;49.500;7.772;2022-07-29T11:02:44;29.00;70.00
13794;DHT22;31160;49.500;7.772;2022-07-29T11:05:17;29.10;69.60
13794;DHT22;31160;49.500;7.772;2022-07-29T11:10:50;28.90;68.10
13794;DHT22;31160;49.500;7.772;2022-07-29T11:13:44;28.90;67.00
13794;DHT22;31160;49.500;7.772;2022-07-29T11:17:05;29.00;67.80
13794;DHT22;31160;49.500;7.772;2022-07-29T11:19:34;29.30;67.00
13794;DHT22;31160;49.500;7.772;2022-07-29T11:22:08;29.60;66.10
13794;DHT22;31160;49.500;7.772;2022-07-29T11:24:35;29.70;67.00
13794;DHT22;31160;49.500;7.772;2022-07-29T11:29:56;29.90;64.10
13794;DHT22;31160;49.500;7.772;2022-07-29T11:32:36;29.50;62.40
13794;DHT22;31160;49.500;7.772;2022-07-29T11:35:21;29.30;61.80
13794;DHT22;31160;49.500;7.772;2022-07-29T11:38:27;29.20;61.00
13794;DHT22;31160;49.500;7.772;2022-07-29T11:41:20;28.90;61.60
13794;DHT22;31160;49.500;7.772;2022-07-29T11:43:59;28.70;62.30
13794;DHT22;31160;49.500;7.772;2022-07-29T11:46:48;28.30;62.70
13794;DHT22;31160;49.500;7.772;2022-07-29T11:49:23;28.20;62.80
13794;DHT22;31160;49.500;7.772;2022-07-29T11:51:59;28.30;62.90
13794;DHT22;31160;49.500;7.772;2022-07-29T11:54:34;28.60;63.40
13794;DHT22;31160;49.500;7.772;2022-07-29T11:57:21;28.70;63.50
13794;DHT22;31160;49.500;7.772;2022-07-29T12:00:05;28.60;63.80
13794;DHT22;31160;49.500;7.772;2022-07-29T12:02:39;28.90;63.00
13794;DHT22;31160;49.500;7.772;2022-07-29T12:05:09;28.90;62.00
13794;DHT22;31160;49.500;7.772;2022-07-29T12:07:39;29.00;60.80
13794;DHT22;31160;49.500;7.772;2022-07-29T12:10:13;28.90;62.50
13794;DHT22;31160;49.500;7.772;2022-07-29T12:12:55;28.80;60.40
13794;DHT22;31160;49.500;7.772;2022-07-29T12:15:21;28.80;61.70
13794;DHT22;31160;49.500;7.772;2022-07-29T12:18:15;28.90;60.90
13794;DHT22;31160;49.500;7.772;2022-07-29T12:20:44;29.10;60.90
13794;DHT22;31160;49.500;7.772;2022-07-29T12:23:12;29.10;60.50
13794;DHT22;31160;49.500;7.772;2022-07-29T12:25:43;29.30;60.00
13794;DHT22;31160;49.500;7.772;2022-07-29T12:28:15;29.00;59.10
13794;DHT22;31160;49.500;7.772;2022-07-29T12:30:53;29.00;59.80
13794;DHT22;31160;49.500;7.772;2022-07-29T12:33:24;29.00;59.50
13794;DHT22;31160;49.500;7.772;2022-07-29T12:36:00;29.00;59.80
13794;DHT22;31160;49.500;7.772;2022-07-29T12:38:34;29.30;59.40
13794;DHT22;31160;49.500;7.772;2022-07-29T12:41:01;29.70;59.20
13794;DHT22;31160;49.500;7.772;2022-07-29T12:43:30;29.90;59.30
13794;DHT22;31160;49.500;7.772;2022-07-29T12:46:12;30.30;57.40
13794;DHT22;31160;49.500;7.772;2022-07-29T12:48:41;29.60;56.70
13794;DHT22;31160;49.500;7.772;2022-07-29T12:51:09;28.80;58.20
13794;DHT22;31160;49.500;7.772;2022-07-29T12:53:37;28.80;58.50
13794;DHT22;31160;49.500;7.772;2022-07-29T12:56:05;28.90;58.60
13794;DHT22;31160;49.500;7.772;2022-07-29T12:58:52;29.10;57.90
13794;DHT22;31160;49.500;7.772;2022-07-29T13:01:19;29.10;58.30
13794;DHT22;31160;49.500;7.772;2022-07-29T13:09:20;29.50;57.80
13794;DHT22;31160;49.500;7.772;2022-07-29T13:11:48;29.70;57.70
13794;DHT22;31160;49.500;7.772;2022-07-29T13:14:39;29.90;57.00
13794;DHT22;31160;49.500;7.772;2022-07-29T13:17:12;30.10;57.30
13794;DHT22;31160;49.500;7.772;2022-07-29T13:22:11;30.30;58.10
13794;DHT22;31160;49.500;7.772;2022-07-29T13:24:50;30.60;55.10
13794;DHT22;31160;49.500;7.772;2022-07-29T13:27:18;30.90;54.30
13794;DHT22;31160;49.500;7.772;2022-07-29T13:29:45;31.20;53.70
13794;DHT22;31160;49.500;7.772;2022-07-29T13:32:13;31.40;52.70
13794;DHT22;31160;49.500;7.772;2022-07-29T13:34:40;31.60;53.80
13794;DHT22;31160;49.500;7.772;2022-07-29T13:37:07;31.50;52.10
13794;DHT22;31160;49.500;7.772;2022-07-29T13:39:34;31.10;51.90
13794;DHT22;31160;49.500;7.772;2022-07-29T13:42:01;30.60;52.40
13794;DHT22;31160;49.500;7.772;2022-07-29T13:44:28;30.80;53.30
13794;DHT22;31160;49.500;7.772;2022-07-29T13:46:55;30.90;52.60
13794;DHT22;31160;49.500;7.772;2022-07-29T13:49:22;31.00;52.30
13794;DHT22;31160;49.500;7.772;2022-07-29T13:51:49;30.90;52.00
13794;DHT22;31160;49.500;7.772;2022-07-29T13:54:16;30.90;51.90
13794;DHT22;31160;49.500;7.772;2022-07-29T13:56:43;30.90;52.40
13794;DHT22;31160;49.500;7.772;2022-07-29T13:59:12;30.90;52.30
13794;DHT22;31160;49.500;7.772;2022-07-29T14:01:38;31.10;52.30
13794;DHT22;31160;49.500;7.772;2022-07-29T14:04:09;31.10;51.30
13794;DHT22;31160;49.500;7.772;2022-07-29T14:06:37;31.00;51.10
13794;DHT22;31160;49.500;7.772;2022-07-29T14:09:06;31.00;50.90
13794;DHT22;31160;49.500;7.772;2022-07-29T14:11:35;31.00;50.40
13794;DHT22;31160;49.500;7.772;2022-07-29T14:14:02;30.90;50.00
13794;DHT22;31160;49.500;7.772;2022-07-29T14:16:29;30.80;50.80
13794;DHT22;31160;49.500;7.772;2022-07-29T14:18:56;30.80;50.60
13794;DHT22;31160;49.500;7.772;2022-07-29T14:21:23;30.90;50.40
13794;DHT22;31160;49.500;7.772;2022-07-29T14:23:50;31.10;51.50
13794;DHT22;31160;49.500;7.772;2022-07-29T14:26:19;31.70;49.80
13794;DHT22;31160;49.500;7.772;2022-07-29T14:28:50;31.80;48.60
13794;DHT22;31160;49.500;7.772;2022-07-29T14:31:16;31.80;48.20
13794;DHT22;31160;49.500;7.772;2022-07-29T14:33:43;31.90;48.50
13794;DHT22;31160;49.500;7.772;2022-07-29T14:36:15;31.90;48.20
13794;DHT22;31160;49.500;7.772;2022-07-29T14:38:42;31.80;47.90
13794;DHT22;31160;49.500;7.772;2022-07-29T14:41:09;31.70;48.40
13794;DHT22;31160;49.500;7.772;2022-07-29T14:43:36;31.60;48.00
13794;DHT22;31160;49.500;7.772;2022-07-29T14:46:02;31.30;47.80
13794;DHT22;31160;49.500;7.772;2022-07-29T14:48:34;30.90;48.50
13794;DHT22;31160;49.500;7.772;2022-07-29T14:51:01;30.50;48.20
13794;DHT22;31160;49.500;7.772;2022-07-29T14:53:31;30.30;48.80
13794;DHT22;31160;49.500;7.772;2022-07-29T14:55:58;30.10;49.20
13794;DHT22;31160;49.500;7.772;2022-07-29T14:58:44;30.00;49.10
13794;DHT22;31160;49.500;7.772;2022-07-29T15:01:17;29.80;49.30
13794;DHT22;31160;49.500;7.772;2022-07-29T15:03:44;29.60;49.10
13794;DHT22;31160;49.500;7.772;2022-07-29T15:06:12;29.40;48.70
13794;DHT22;31160;49.500;7.772;2022-07-29T15:08:39;29.30;48.60
13794;DHT22;31160;49.500;7.772;2022-07-29T15:11:05;29.30;48.90
13794;DHT22;31160;49.500;7.772;2022-07-29T15:13:33;29.20;48.20
13794;DHT22;31160;49.500;7.772;2022-07-29T15:16:00;29.10;48.50
13794;DHT22;31160;49.500;7.772;2022-07-29T15:18:27;29.10;48.50
13794;DHT22;31160;49.500;7.772;2022-07-29T15:20:53;29.10;48.00
13794;DHT22;31160;49.500;7.772;2022-07-29T15:23:20;29.10;48.20
13794;DHT22;31160;49.500;7.772;2022-07-29T15:25:47;29.10;48.20
13794;DHT22;31160;49.500;7.772;2022-07-29T15:28:14;29.20;47.80
13794;DHT22;31160;49.500;7.772;2022-07-29T15:30:40;29.10;48.50
13794;DHT22;31160;49.500;7.772;2022-07-29T15:33:08;29.10;48.30
13794;DHT22;31160;49.500;7.772;2022-07-29T15:35:37;29.10;48.10
13794;DHT22;31160;49.500;7.772;2022-07-29T15:38:06;29.10;48.60
13794;DHT22;31160;49.500;7.772;2022-07-29T15:40:37;29.10;47.20
13794;DHT22;31160;49.500;7.772;2022-07-29T15:43:04;28.90;47.20
13794;DHT22;31160;49.500;7.772;2022-07-29T15:45:40;28.90;47.20
13794;DHT22;31160;49.500;7.772;2022-07-29T15:48:08;28.90;47.40
13794;DHT22;31160;49.500;7.772;2022-07-29T15:50:40;28.90;47.30
13794;DHT22;31160;49.500;7.772;2022-07-29T15:53:07;28.80;46.60
13794;DHT22;31160;49.500;7.772;2022-07-29T15:55:34;28.70;45.60
13794;DHT22;31160;49.500;7.772;2022-07-29T15:58:00;28.60;45.10
13794;DHT22;31160;49.500;7.772;2022-07-29T16:00:27;28.50;45.10
13794;DHT22;31160;49.500;7.772;2022-07-29T16:02:54;28.40;45.50
13794;DHT22;31160;49.500;7.772;2022-07-29T16:05:21;28.40;45.90
13794;DHT22;31160;49.500;7.772;2022-07-29T16:07:48;28.30;45.80
13794;DHT22;31160;49.500;7.772;2022-07-29T16:10:15;28.30;45.20
13794;DHT22;31160;49.500;7.772;2022-07-29T16:12:42;28.20;46.10
13794;DHT22;31160;49.500;7.772;2022-07-29T16:15:09;28.20;46.30
13794;DHT22;31160;49.500;7.772;2022-07-29T16:17:37;28.30;46.60
13794;DHT22;31160;49.500;7.772;2022-07-29T16:20:05;28.20;46.80
13794;DHT22;31160;49.500;7.772;2022-07-29T16:22:32;28.20;47.00
13794;DHT22;31160;49.500;7.772;2022-07-29T16:24:58;28.10;46.90
13794;DHT22;31160;49.500;7.772;2022-07-29T16:27:25;28.00;46.90
13794;DHT22;31160;49.500;7.772;2022-07-29T16:30:05;28.10;46.60
13794;DHT22;31160;49.500;7.772;2022-07-29T16:32:32;28.10;47.10
13794;DHT22;31160;49.500;7.772;2022-07-29T16:34:59;27.90;47.60